createdAt,value
2023-04-01T00:00:10.593Z,695.87
2023-04-01T00:02:38.906Z,703.67
2023-04-01T00:05:07.745Z,671.60
2023-04-01T00:07:35.952Z,677.63
2023-04-01T00:10:05.956Z,658.10
2023-04-01T00:12:34.244Z,689.73
2023-04-01T00:15:02.502Z,692.57
2023-04-01T00:17:31.061Z,692.37
2023-04-01T00:19:59.228Z,721.50
2023-04-01T00:22:28.148Z,712.83
2023-04-01T00:24:56.485Z,699.23
2023-04-01T00:27:26.156Z,693.03
2023-04-01T00:29:54.325Z,707.93
2023-04-01T00:32:22.593Z,688.43
2023-04-01T00:34:53.392Z,684.10
2023-04-01T00:37:21.925Z,697.37
2023-04-01T00:39:50.190Z,714.83
2023-04-01T00:42:18.947Z,708.80
2023-04-01T00:44:51.104Z,694.13
2023-04-01T00:47:19.459Z,717.63
2023-04-01T00:49:49.229Z,710.37
2023-04-01T00:52:20.325Z,713.83
2023-04-01T00:54:50.014Z,716.53
2023-04-01T00:57:20.279Z,717.67
2023-04-01T00:59:51.893Z,725.70
2023-04-01T01:02:20.119Z,746.53
2023-04-01T01:04:48.585Z,746.20
2023-04-01T01:07:23.082Z,752.27
2023-04-01T01:09:55.325Z,758.20
2023-04-01T01:12:24.731Z,753.40
2023-04-01T01:14:57.957Z,751.53
2023-04-01T01:17:32.566Z,751.73
2023-04-01T01:20:26.005Z,741.73
2023-04-01T01:23:00.892Z,751.77
2023-04-01T01:25:34.840Z,763.33
2023-04-01T01:28:13.618Z,779.50
2023-04-01T01:30:46.141Z,782.80
2023-04-01T01:33:31.440Z,750.43
2023-04-01T01:36:02.379Z,773.30
2023-04-01T01:38:33.926Z,759.97
2023-04-01T01:41:03.061Z,761.37
2023-04-01T01:43:34.525Z,755.67
2023-04-01T01:46:06.858Z,765.57
2023-04-01T01:48:35.589Z,740.83
2023-04-01T01:51:05.394Z,754.60
2023-04-01T01:53:33.623Z,746.70
2023-04-01T01:56:01.813Z,735.93
2023-04-01T01:58:32.162Z,754.93
2023-04-01T02:01:02.099Z,767.83
2023-04-01T02:03:32.445Z,766.07
2023-04-01T02:06:02.203Z,773.77
2023-04-01T02:08:34.108Z,763.87
2023-04-01T02:11:04.276Z,768.60
2023-04-01T02:13:33.759Z,754.93
2023-04-01T02:16:03.147Z,766.47
2023-04-01T02:18:32.570Z,758.50
2023-04-01T02:21:01.589Z,758.83
2023-04-01T02:23:30.647Z,752.33
2023-04-01T02:26:00.273Z,758.70
2023-04-01T02:28:28.980Z,761.60
2023-04-01T02:30:57.402Z,754.03
2023-04-01T02:33:26.543Z,754.97
2023-04-01T02:35:54.843Z,759.60
2023-04-01T02:38:23.421Z,752.73
2023-04-01T02:40:52.808Z,751.13
2023-04-01T02:43:22.323Z,749.07
2023-04-01T02:45:50.567Z,721.23
2023-04-01T02:48:18.746Z,765.83
2023-04-01T02:50:47.091Z,747.37
2023-04-01T02:53:15.458Z,759.60
2023-04-01T02:55:43.905Z,762.90
2023-04-01T02:58:12.275Z,767.53
2023-04-01T03:00:41.774Z,774.73
2023-04-01T03:03:10.060Z,779.67
2023-04-01T03:05:38.463Z,763.73
2023-04-01T03:08:07.256Z,763.03
2023-04-01T03:10:35.633Z,780.40
2023-04-01T03:13:03.781Z,770.43
2023-04-01T03:15:32.213Z,785.43
2023-04-01T03:18:01.982Z,782.57
2023-04-01T03:20:30.225Z,772.50
2023-04-01T03:22:58.603Z,777.87
2023-04-01T03:25:27.898Z,779.80
2023-04-01T03:27:56.145Z,782.23
2023-04-01T03:30:24.395Z,774.13
2023-04-01T03:32:52.773Z,781.03
2023-04-01T03:35:22.403Z,780.70
2023-04-01T03:37:50.833Z,780.63
2023-04-01T03:40:19.098Z,782.47
2023-04-01T03:42:47.560Z,780.23
2023-04-01T03:45:15.792Z,772.13
2023-04-01T03:47:44.104Z,793.13
2023-04-01T03:50:12.697Z,781.97
2023-04-01T03:52:42.250Z,787.70
2023-04-01T03:55:10.566Z,780.13
2023-04-01T03:57:38.762Z,797.30
2023-04-01T04:00:09.710Z,790.53
2023-04-01T04:02:38.032Z,792.70
2023-04-01T04:05:07.931Z,786.30
2023-04-01T04:07:36.883Z,797.63
2023-04-01T04:10:07.216Z,787.97
2023-04-01T04:12:35.598Z,804.73
2023-04-01T04:15:04.032Z,798.77
2023-04-01T04:17:32.244Z,785.00
2023-04-01T04:20:00.462Z,788.23
2023-04-01T04:22:28.651Z,787.37
2023-04-01T04:24:56.819Z,798.33
2023-04-01T04:27:26.433Z,787.33
2023-04-01T04:29:54.580Z,791.57
2023-04-01T04:32:22.843Z,758.93
2023-04-01T04:34:50.991Z,784.60
2023-04-01T04:37:19.135Z,761.80
2023-04-01T04:39:47.318Z,762.03
2023-04-01T04:42:15.512Z,766.97
2023-04-01T04:44:45.096Z,730.20
2023-04-01T04:47:13.538Z,728.63
2023-04-01T04:49:41.857Z,734.10
2023-04-01T04:52:10.018Z,735.60
2023-04-01T04:54:38.284Z,742.37
2023-04-01T04:57:06.507Z,702.43
2023-04-01T04:59:34.728Z,718.47
2023-04-01T05:02:04.294Z,708.73
2023-04-01T05:04:32.452Z,691.43
2023-04-01T05:07:01.012Z,707.17
2023-04-01T05:09:29.241Z,690.80
2023-04-01T05:11:57.432Z,701.53
2023-04-01T05:14:25.715Z,716.53
2023-04-01T05:16:55.277Z,720.10
2023-04-01T05:19:25.010Z,754.73
2023-04-01T05:21:53.819Z,750.63
2023-04-01T05:24:22.011Z,748.23
2023-04-01T05:26:50.171Z,749.63
2023-04-01T05:29:18.424Z,760.13
2023-04-01T05:31:46.624Z,746.37
2023-04-01T05:34:15.717Z,749.17
2023-04-01T05:36:45.327Z,710.90
2023-04-01T05:39:13.716Z,749.80
2023-04-01T05:41:42.463Z,753.20
2023-04-01T05:44:14.295Z,763.03
2023-04-01T05:46:42.581Z,750.23
2023-04-01T05:49:10.868Z,746.83
2023-04-01T05:51:39.058Z,761.90
2023-04-01T05:54:08.792Z,756.30
2023-04-01T05:56:36.988Z,743.60
2023-04-01T05:59:05.239Z,725.97
2023-04-01T06:01:33.374Z,734.23
2023-04-01T06:04:01.677Z,729.20
2023-04-01T06:06:31.931Z,747.13
2023-04-01T06:09:01.628Z,750.77
2023-04-01T06:11:37.558Z,742.20
2023-04-01T06:14:16.963Z,708.83
2023-04-01T06:16:51.320Z,725.27
2023-04-01T06:19:25.350Z,667.50
2023-04-01T06:22:08.379Z,688.00
2023-04-01T06:24:44.112Z,715.13
2023-04-01T06:27:19.037Z,700.03
2023-04-01T06:29:50.993Z,704.33
2023-04-01T06:32:46.101Z,726.70
2023-04-01T06:35:20.745Z,727.53
2023-04-01T06:38:06.670Z,703.93
2023-04-01T06:40:41.770Z,688.43
2023-04-01T06:43:18.249Z,723.70
2023-04-01T06:45:51.534Z,723.37
2023-04-01T06:48:26.314Z,724.63
2023-04-01T06:51:00.744Z,732.87
2023-04-01T06:53:34.275Z,743.90
2023-04-01T06:56:05.162Z,735.13
2023-04-01T06:58:37.311Z,733.97
2023-04-01T07:01:06.805Z,719.83
2023-04-01T07:03:36.390Z,720.80
2023-04-01T07:06:06.217Z,667.90
2023-04-01T07:08:36.202Z,713.03
2023-04-01T07:11:05.696Z,712.47
2023-04-01T07:13:37.039Z,701.00
2023-04-01T07:16:11.380Z,684.10
2023-04-01T07:18:41.529Z,714.90
2023-04-01T07:21:12.310Z,711.77
2023-04-01T07:23:43.680Z,656.00
2023-04-01T07:26:17.565Z,643.07
2023-04-01T07:28:47.647Z,662.90
2023-04-01T07:31:21.565Z,659.83
2023-04-01T07:33:55.648Z,683.43
2023-04-01T07:36:28.321Z,672.57
2023-04-01T07:39:02.069Z,699.50
2023-04-01T07:41:33.491Z,696.83
2023-04-01T07:44:08.711Z,664.97
2023-04-01T07:46:49.728Z,672.03
2023-04-01T07:49:20.017Z,670.37
2023-04-01T07:51:51.139Z,629.20
2023-04-01T07:54:22.320Z,637.47
2023-04-01T07:56:54.382Z,649.30
2023-04-01T07:59:27.803Z,692.73
2023-04-01T08:02:01.155Z,715.83
2023-04-01T08:04:43.064Z,700.63
2023-04-01T08:07:13.020Z,705.47
2023-04-01T08:09:45.276Z,706.80
2023-04-01T08:12:20.222Z,733.43
2023-04-01T08:14:55.414Z,685.93
2023-04-01T08:17:28.146Z,702.53
2023-04-01T08:20:01.724Z,691.70
2023-04-01T08:22:31.943Z,708.00
2023-04-01T08:25:03.584Z,680.93
2023-04-01T08:27:36.878Z,702.80
2023-04-01T08:30:10.402Z,673.40
2023-04-01T08:32:39.887Z,676.23
2023-04-01T08:35:11.200Z,670.57
2023-04-01T08:37:40.877Z,707.30
2023-04-01T08:40:19.045Z,693.53
2023-04-01T08:42:53.438Z,664.17
2023-04-01T08:45:28.513Z,670.27
2023-04-01T08:48:09.439Z,658.67
2023-04-01T08:50:52.714Z,676.30
2023-04-01T08:53:26.942Z,706.27
2023-04-01T08:56:04.408Z,703.23
2023-04-01T08:58:45.479Z,687.97
2023-04-01T09:01:21.673Z,713.53
2023-04-01T09:04:01.563Z,718.10
2023-04-01T09:06:34.464Z,713.30
2023-04-01T09:09:31.024Z,714.77
2023-04-01T09:12:10.035Z,690.00
2023-04-01T09:14:49.396Z,681.53
2023-04-01T09:17:30.871Z,704.43
2023-04-01T09:20:09.614Z,707.30
2023-04-01T09:22:44.676Z,708.10
2023-04-01T09:25:32.384Z,682.20
2023-04-01T09:28:03.759Z,695.93
2023-04-01T09:30:36.469Z,706.70
2023-04-01T09:33:19.560Z,722.87
2023-04-01T09:35:50.476Z,647.63
2023-04-01T09:38:24.312Z,692.50
2023-04-01T09:40:58.082Z,716.37
2023-04-01T09:43:28.681Z,700.83
2023-04-01T09:46:06.235Z,691.10
2023-04-01T09:48:43.114Z,656.80
2023-04-01T09:51:20.771Z,690.97
2023-04-01T09:53:52.945Z,667.13
2023-04-01T09:56:26.536Z,639.37
2023-04-01T09:59:07.002Z,699.17
2023-04-01T10:01:48.429Z,649.00
2023-04-01T10:04:38.342Z,634.77
2023-04-01T10:07:37.514Z,633.97
2023-04-01T10:10:23.605Z,573.87
2023-04-01T10:13:02.417Z,557.70
2023-04-01T10:15:43.651Z,609.00
2023-04-01T10:18:44.821Z,571.70
2023-04-01T10:21:25.661Z,658.00
2023-04-01T10:24:13.314Z,647.97
2023-04-01T10:26:52.382Z,671.23
2023-04-01T10:29:39.238Z,569.33
2023-04-01T10:32:16.116Z,475.03
2023-04-01T10:35:09.708Z,558.30
2023-04-01T10:37:46.343Z,670.80
2023-04-01T10:40:30.076Z,676.87
2023-04-01T10:43:13.901Z,649.70
2023-04-01T10:46:01.454Z,671.50
2023-04-01T10:48:38.115Z,607.43
2023-04-01T10:51:18.944Z,615.70
2023-04-01T10:54:08.251Z,631.80
2023-04-01T10:56:39.227Z,609.83
2023-04-01T10:59:26.354Z,642.87
2023-04-01T11:02:12.573Z,662.73
2023-04-01T11:04:52.775Z,680.70
2023-04-01T11:07:30.755Z,663.60
2023-04-01T11:10:16.825Z,623.70
2023-04-01T11:13:04.529Z,575.73
2023-04-01T11:15:43.890Z,581.80
2023-04-01T11:18:39.344Z,641.07
2023-04-01T11:21:26.805Z,655.37
2023-04-01T11:24:07.130Z,590.70
2023-04-01T11:26:36.488Z,591.70
2023-04-01T11:29:10.515Z,624.07
2023-04-01T11:31:43.359Z,657.33
2023-04-01T11:34:18.702Z,666.03
2023-04-01T11:36:51.060Z,678.23
2023-04-01T11:39:24.689Z,675.60
2023-04-01T11:41:57.006Z,594.03
2023-04-01T11:44:28.198Z,654.03
2023-04-01T11:47:04.232Z,662.23
2023-04-01T11:49:52.698Z,646.40
2023-04-01T11:52:27.811Z,692.60
2023-04-01T11:55:09.200Z,702.50
2023-04-01T11:57:52.483Z,723.77
2023-04-01T12:00:27.442Z,668.60
2023-04-01T12:03:03.766Z,689.30
2023-04-01T12:05:37.881Z,662.43
2023-04-01T12:08:15.678Z,692.03
2023-04-01T12:10:47.820Z,667.60
2023-04-01T12:13:28.457Z,673.33
2023-04-01T12:16:10.536Z,719.57
2023-04-01T12:18:41.268Z,654.93
2023-04-01T12:21:17.727Z,633.37
2023-04-01T12:23:53.640Z,597.23
2023-04-01T12:26:40.570Z,578.67
2023-04-01T12:29:21.720Z,633.60
2023-04-01T12:31:55.136Z,545.57
2023-04-01T12:34:41.012Z,529.00
2023-04-01T12:37:16.119Z,431.80
2023-04-01T12:40:02.027Z,487.90
2023-04-01T12:42:39.632Z,496.30
2023-04-01T12:45:19.913Z,505.07
2023-04-01T12:47:58.499Z,414.13
2023-04-01T12:50:30.674Z,508.03
2023-04-01T12:53:05.973Z,579.57
2023-04-01T12:55:39.302Z,553.47
2023-04-01T12:58:37.430Z,558.40
2023-04-01T13:01:11.608Z,557.70
2023-04-01T13:03:46.719Z,546.33
2023-04-01T13:06:27.863Z,485.87
2023-04-01T13:09:00.441Z,538.83
2023-04-01T13:11:36.455Z,631.27
2023-04-01T13:14:31.806Z,643.83
2023-04-01T13:17:05.506Z,620.70
2023-04-01T13:19:39.121Z,621.50
2023-04-01T13:22:09.913Z,605.60
2023-04-01T13:24:42.493Z,572.40
2023-04-01T13:27:14.619Z,558.83
2023-04-01T13:29:43.890Z,587.93
2023-04-01T13:32:40.818Z,605.73
2023-04-01T13:35:20.124Z,648.83
2023-04-01T13:37:55.268Z,624.17
2023-04-01T13:40:38.219Z,542.73
2023-04-01T13:43:10.418Z,539.00
2023-04-01T13:45:44.853Z,495.37
2023-04-01T13:48:29.805Z,440.50
2023-04-01T13:51:12.817Z,414.30
2023-04-01T13:53:51.499Z,398.27
2023-04-01T13:56:24.533Z,453.87
2023-04-01T13:58:58.058Z,474.10
2023-04-01T14:01:32.488Z,489.87
2023-04-01T14:04:12.737Z,387.30
2023-04-01T14:06:50.755Z,365.17
2023-04-01T14:09:29.003Z,306.17
2023-04-01T14:12:01.163Z,308.43
2023-04-01T14:14:33.944Z,365.53
2023-04-01T14:17:11.190Z,401.23
2023-04-01T14:19:49.086Z,317.27
2023-04-01T14:22:24.517Z,260.60
2023-04-01T14:25:02.073Z,235.90
2023-04-01T14:27:40.958Z,310.20
2023-04-01T14:30:20.388Z,404.27
2023-04-01T14:32:52.593Z,414.97
2023-04-01T14:35:27.418Z,423.83
2023-04-01T14:38:05.401Z,414.07
2023-04-01T14:40:43.049Z,459.13
2023-04-01T14:43:17.544Z,448.90
2023-04-01T14:45:48.931Z,456.97
2023-04-01T14:48:20.469Z,456.60
2023-04-01T14:50:49.934Z,362.10
2023-04-01T14:53:28.869Z,296.53
2023-04-01T14:55:58.018Z,258.53
2023-04-01T14:58:27.280Z,262.57
2023-04-01T15:01:00.859Z,221.90
2023-04-01T15:03:31.720Z,225.77
2023-04-01T15:06:12.607Z,259.10
2023-04-01T15:08:46.969Z,293.70
2023-04-01T15:11:35.952Z,221.87
2023-04-01T15:14:22.137Z,216.13
2023-04-01T15:16:56.904Z,179.63
2023-04-01T15:19:29.904Z,180.40
2023-04-01T15:22:03.489Z,154.07
2023-04-01T15:24:43.400Z,168.53
2023-04-01T15:27:16.071Z,166.50
2023-04-01T15:29:49.379Z,158.87
2023-04-01T15:32:20.099Z,175.23
2023-04-01T15:34:52.661Z,153.53
2023-04-01T15:37:25.825Z,274.53
2023-04-01T15:39:58.822Z,238.03
2023-04-01T15:42:31.297Z,197.13
2023-04-01T15:45:06.724Z,203.23
2023-04-01T15:47:36.713Z,212.27
2023-04-01T15:50:18.528Z,212.90
2023-04-01T15:52:51.208Z,191.37
2023-04-01T15:55:23.738Z,194.70
2023-04-01T15:57:58.881Z,183.53
2023-04-01T16:00:30.866Z,189.43
2023-04-01T16:03:13.064Z,196.03
2023-04-01T16:05:45.592Z,167.07
2023-04-01T16:08:28.736Z,184.80
2023-04-01T16:11:06.825Z,170.73
2023-04-01T16:13:42.516Z,216.20
2023-04-01T16:16:15.239Z,246.23
2023-04-01T16:18:51.365Z,261.27
2023-04-01T16:21:27.593Z,230.30
2023-04-01T16:23:58.332Z,214.73
2023-04-01T16:26:31.332Z,242.97
2023-04-01T16:29:05.609Z,193.10
2023-04-01T16:31:37.673Z,200.10
2023-04-01T16:34:11.403Z,205.50
2023-04-01T16:36:44.591Z,205.93
2023-04-01T16:39:20.355Z,188.03
2023-04-01T16:41:53.269Z,165.33
2023-04-01T16:44:23.005Z,165.43
2023-04-01T16:46:53.555Z,138.87
2023-04-01T16:49:31.868Z,124.00
2023-04-01T16:52:15.305Z,129.53
2023-04-01T16:54:45.897Z,117.87
2023-04-01T16:57:19.572Z,123.37
2023-04-01T16:59:49.416Z,120.47
2023-04-01T17:02:19.337Z,121.07
2023-04-01T17:04:47.988Z,101.03
2023-04-01T17:07:24.796Z,120.47
2023-04-01T17:09:58.735Z,97.97
2023-04-01T17:12:31.013Z,108.57
2023-04-01T17:15:04.407Z,111.70
2023-04-01T17:17:35.956Z,114.97
2023-04-01T17:20:17.429Z,120.90
2023-04-01T17:22:49.397Z,105.60
2023-04-01T17:25:23.421Z,103.13
2023-04-01T17:27:54.616Z,85.43
2023-04-01T17:30:26.483Z,69.97
2023-04-01T17:32:59.714Z,75.90
2023-04-01T17:35:30.246Z,59.43
2023-04-01T17:38:03.526Z,59.70
2023-04-01T17:40:36.631Z,53.03
2023-04-01T17:43:10.092Z,42.40
2023-04-01T17:45:45.060Z,39.17
2023-04-01T17:48:18.941Z,38.53
2023-04-01T17:50:52.676Z,40.67
2023-04-01T17:53:26.139Z,36.97
2023-04-01T17:56:01.949Z,36.23
2023-04-01T17:58:37.136Z,32.27
2023-04-01T18:01:11.387Z,34.33
2023-04-01T18:03:57.304Z,35.27
2023-04-01T18:06:33.422Z,39.73
2023-04-01T18:09:03.310Z,33.50
2023-04-01T18:11:40.013Z,28.53
2023-04-01T18:14:25.929Z,37.07
2023-04-01T18:17:01.016Z,32.13
2023-04-01T18:19:33.890Z,24.47
2023-04-01T18:22:04.495Z,22.27
2023-04-01T18:24:36.246Z,21.93
2023-04-01T18:27:05.763Z,24.20
2023-04-01T18:29:38.146Z,24.30
2023-04-01T18:32:13.978Z,26.80
2023-04-01T18:34:46.380Z,22.83
2023-04-01T18:37:19.962Z,23.30
2023-04-01T18:39:50.788Z,22.83
2023-04-01T18:42:22.808Z,22.83
2023-04-01T18:44:53.751Z,24.47
2023-04-01T18:47:27.724Z,25.27
2023-04-01T18:49:58.206Z,25.67
2023-04-01T18:52:29.819Z,23.50
2023-04-01T18:55:12.825Z,20.57
2023-04-01T18:57:43.507Z,24.37
2023-04-01T19:00:17.177Z,23.57
2023-04-01T19:02:48.250Z,24.27
2023-04-01T19:05:19.965Z,21.00
2023-04-01T19:07:50.148Z,19.30
2023-04-01T19:10:20.820Z,20.33
2023-04-01T19:12:56.140Z,20.70
2023-04-01T19:15:32.723Z,19.70
2023-04-01T19:18:06.266Z,17.87
2023-04-01T19:20:36.940Z,17.17
2023-04-01T19:23:14.775Z,14.77
2023-04-01T19:25:46.445Z,16.53
2023-04-01T19:28:27.145Z,15.10
2023-04-01T19:30:59.007Z,14.80
2023-04-01T19:33:33.067Z,13.67
2023-04-01T19:36:05.241Z,14.63
2023-04-01T19:38:36.588Z,13.43
2023-04-01T19:41:07.186Z,13.20
2023-04-01T19:43:42.577Z,12.07
2023-04-01T19:46:17.055Z,11.90
2023-04-01T19:48:52.701Z,11.30
2023-04-01T19:51:25.449Z,12.40
2023-04-01T19:53:56.690Z,14.17
2023-04-01T19:56:27.156Z,13.87
2023-04-01T19:58:57.231Z,13.07
2023-04-01T20:01:41.433Z,13.03
2023-04-01T20:04:15.365Z,13.17
2023-04-01T20:06:47.576Z,12.90
2023-04-01T20:09:28.854Z,13.87
2023-04-01T20:12:00.194Z,10.23
2023-04-01T20:14:31.922Z,11.37
2023-04-01T20:17:16.673Z,11.30
2023-04-01T20:19:46.528Z,11.90
2023-04-01T20:22:27.095Z,12.90
2023-04-01T20:24:55.887Z,13.60
2023-04-01T20:27:26.357Z,12.67
2023-04-01T20:30:02.836Z,11.97
2023-04-01T20:32:37.509Z,12.23
2023-04-01T20:35:24.412Z,15.53
2023-04-01T20:37:56.036Z,13.73
2023-04-01T20:40:33.751Z,15.90
2023-04-01T20:43:12.946Z,16.80
2023-04-01T20:45:43.877Z,12.53
2023-04-01T20:48:25.029Z,13.67
2023-04-01T20:50:54.013Z,12.27
2023-04-01T20:53:23.776Z,13.17
2023-04-01T20:56:12.622Z,12.40
2023-04-01T20:58:47.867Z,13.10
2023-04-01T21:01:18.899Z,14.80
2023-04-01T21:03:51.667Z,11.30
2023-04-01T21:06:27.802Z,9.97
2023-04-01T21:09:02.142Z,9.70
2023-04-01T21:11:32.887Z,8.77
2023-04-01T21:14:06.208Z,9.70
2023-04-01T21:16:42.744Z,8.43
2023-04-01T21:19:27.542Z,10.67
2023-04-01T21:22:17.729Z,10.70
2023-04-01T21:24:59.084Z,9.80
2023-04-01T21:27:39.389Z,10.77
2023-04-01T21:30:16.547Z,12.23
2023-04-01T21:32:51.762Z,11.30
2023-04-01T21:35:26.781Z,10.93
2023-04-01T21:38:10.633Z,9.67
2023-04-01T21:41:12.118Z,12.07
2023-04-01T21:43:53.328Z,11.60
2023-04-01T21:46:49.499Z,10.50
2023-04-01T21:49:38.417Z,11.40
2023-04-01T21:52:32.374Z,11.17
2023-04-01T21:55:10.929Z,12.00
2023-04-01T21:57:53.775Z,12.33
2023-04-01T22:00:23.340Z,11.70
2023-04-01T22:03:20.122Z,11.93
2023-04-01T22:05:57.405Z,11.00
2023-04-01T22:08:42.005Z,9.97
2023-04-01T22:11:13.733Z,8.43
2023-04-01T22:13:45.554Z,7.43
2023-04-01T22:16:19.086Z,6.80
2023-04-01T22:18:49.267Z,7.00
2023-04-01T22:21:22.279Z,7.10
2023-04-01T22:23:54.827Z,7.40
2023-04-01T22:26:28.023Z,8.00
2023-04-01T22:29:00.158Z,8.50
2023-04-01T22:31:30.878Z,9.03
2023-04-01T22:34:02.530Z,8.37
2023-04-01T22:36:34.272Z,9.87
2023-04-01T22:39:08.525Z,10.60
2023-04-01T22:41:46.108Z,9.37
2023-04-01T22:44:19.991Z,9.87
2023-04-01T22:46:53.526Z,9.60
2023-04-01T22:49:24.866Z,8.77
2023-04-01T22:51:55.714Z,8.23
2023-04-01T22:54:30.710Z,8.53
2023-04-01T22:57:13.037Z,8.23
2023-04-01T22:59:46.659Z,8.27
2023-04-01T23:02:17.358Z,7.70
2023-04-01T23:04:46.522Z,9.47
2023-04-01T23:07:31.551Z,9.43
2023-04-01T23:10:02.177Z,9.63
2023-04-01T23:12:31.304Z,9.17
2023-04-01T23:15:01.237Z,9.57
2023-04-01T23:17:52.772Z,10.77
2023-04-01T23:20:27.110Z,11.83
2023-04-01T23:22:59.760Z,10.83
2023-04-01T23:25:35.055Z,10.80
2023-04-01T23:28:20.244Z,10.87
2023-04-01T23:30:50.321Z,11.00
2023-04-01T23:33:23.622Z,10.50
2023-04-01T23:35:52.468Z,10.00
2023-04-01T23:38:21.223Z,10.93
2023-04-01T23:40:52.201Z,12.03
2023-04-01T23:43:24.753Z,13.13
2023-04-01T23:45:53.077Z,12.60
2023-04-01T23:48:22.369Z,13.47
2023-04-01T23:50:50.690Z,13.47
2023-04-01T23:53:19.637Z,12.67
2023-04-01T23:55:48.748Z,13.77
2023-04-01T23:58:26.896Z,13.43
